createdAt,value
2023-02-12T00:01:23.727Z,39.72
2023-02-12T00:03:52.118Z,35.60
2023-02-12T00:06:19.418Z,52.97
2023-02-12T00:08:50.761Z,46.35
2023-02-12T00:11:20.897Z,38.80
2023-02-12T00:13:49.194Z,40.05
2023-02-12T00:16:22.817Z,44.22
2023-02-12T00:18:53.796Z,41.25
2023-02-12T00:21:21.843Z,39.30
2023-02-12T00:23:50.385Z,44.38
2023-02-12T00:26:20.886Z,47.20
2023-02-12T00:28:49.429Z,53.72
2023-02-12T00:31:20.331Z,57.83
2023-02-12T00:33:50.328Z,60.25
2023-02-12T00:36:22.611Z,54.22
2023-02-12T00:38:52.517Z,54.38
2023-02-12T00:41:26.590Z,48.47
2023-02-12T00:43:53.738Z,45.78
2023-02-12T00:46:22.845Z,47.25
2023-02-12T00:48:50.179Z,50.15
2023-02-12T00:51:17.668Z,47.75
2023-02-12T00:53:45.147Z,47.08
2023-02-12T00:56:13.793Z,46.92
2023-02-12T00:58:43.066Z,46.28
2023-02-12T01:01:10.632Z,42.53
2023-02-12T01:03:39.059Z,45.17
2023-02-12T01:06:06.642Z,43.08
2023-02-12T01:08:34.194Z,45.97
2023-02-12T01:11:03.367Z,40.55
2023-02-12T01:13:35.350Z,40.00
2023-02-12T01:16:09.157Z,44.28
2023-02-12T01:18:42.908Z,43.45
2023-02-12T01:21:20.097Z,36.15
2023-02-12T01:23:48.672Z,41.25
2023-02-12T01:26:19.055Z,41.28
2023-02-12T01:28:51.715Z,41.78
2023-02-12T01:31:22.525Z,43.17
2023-02-12T01:33:53.037Z,44.75
2023-02-12T01:36:20.996Z,42.17
2023-02-12T01:38:48.401Z,43.08
2023-02-12T01:41:26.464Z,43.35
2023-02-12T01:44:12.998Z,42.70
2023-02-12T01:46:40.799Z,44.58
2023-02-12T01:49:17.439Z,43.25
2023-02-12T01:51:47.090Z,43.05
2023-02-12T01:54:17.874Z,43.17
2023-02-12T01:56:45.697Z,39.03
2023-02-12T01:59:13.858Z,40.35
2023-02-12T02:01:41.562Z,42.45
2023-02-12T02:04:14.284Z,65.65
2023-02-12T02:06:54.346Z,72.45
2023-02-12T02:09:22.213Z,49.65
2023-02-12T02:12:08.186Z,46.13
2023-02-12T02:14:36.467Z,46.15
2023-02-12T02:17:22.700Z,45.50
2023-02-12T02:20:17.421Z,46.15
2023-02-12T02:22:52.904Z,55.65
2023-02-12T02:25:41.221Z,44.70
2023-02-12T02:28:40.063Z,43.72
2023-02-12T02:31:31.114Z,48.08
2023-02-12T02:34:09.780Z,44.92
2023-02-12T02:36:59.577Z,43.33
2023-02-12T02:39:35.581Z,45.95
2023-02-12T02:42:33.476Z,43.15
2023-02-12T02:45:19.660Z,41.28
2023-02-12T02:48:03.939Z,42.58
2023-02-12T02:50:40.012Z,41.85
2023-02-12T02:53:14.214Z,39.90
2023-02-12T02:55:49.170Z,42.85
2023-02-12T02:58:31.695Z,40.15
2023-02-12T03:01:08.162Z,44.03
2023-02-12T03:03:46.019Z,47.88
2023-02-12T03:06:40.332Z,66.97
2023-02-12T03:09:19.188Z,96.07
2023-02-12T03:11:48.044Z,46.40
2023-02-12T03:14:27.582Z,42.17
2023-02-12T03:17:08.224Z,43.05
2023-02-12T03:19:45.333Z,41.15
2023-02-12T03:22:23.030Z,44.33
2023-02-12T03:25:38.498Z,41.65
2023-02-12T03:28:18.846Z,41.97
2023-02-12T03:31:14.910Z,40.67
2023-02-12T03:34:09.498Z,41.00
2023-02-12T03:36:53.513Z,43.70
2023-02-12T03:39:35.388Z,43.38
2023-02-12T03:42:37.679Z,61.38
2023-02-12T03:45:11.139Z,47.15
2023-02-12T03:50:27.582Z,40.92
2023-02-12T03:52:55.856Z,38.97
2023-02-12T03:55:23.334Z,38.97
2023-02-12T03:58:01.232Z,39.03
2023-02-12T04:00:28.774Z,38.58
2023-02-12T04:02:57.421Z,37.03
2023-02-12T04:05:27.738Z,36.83
2023-02-12T04:07:57.497Z,37.53
2023-02-12T04:10:33.249Z,36.70
2023-02-12T04:13:21.896Z,36.97
2023-02-12T04:16:29.052Z,44.60
2023-02-12T04:18:57.539Z,35.40
2023-02-12T04:21:45.176Z,40.60
2023-02-12T04:24:30.544Z,35.42
2023-02-12T04:27:38.891Z,34.67
2023-02-12T04:30:09.633Z,33.63
2023-02-12T04:32:54.318Z,35.67
2023-02-12T04:35:25.705Z,34.88
2023-02-12T04:38:21.453Z,33.58
2023-02-12T04:40:49.794Z,34.10
2023-02-12T04:43:43.495Z,35.22
2023-02-12T04:46:11.834Z,34.03
2023-02-12T04:48:54.941Z,33.08
2023-02-12T04:51:28.743Z,33.70
2023-02-12T04:53:56.214Z,33.85
2023-02-12T04:56:23.584Z,33.10
2023-02-12T04:58:54.016Z,34.42
2023-02-12T05:01:21.763Z,32.22
2023-02-12T05:03:48.968Z,31.52
2023-02-12T05:06:16.584Z,32.65
2023-02-12T05:08:44.014Z,32.75
2023-02-12T05:11:12.192Z,32.00
2023-02-12T05:13:39.764Z,31.85
2023-02-12T05:16:08.455Z,33.00
2023-02-12T05:18:37.289Z,30.15
2023-02-12T05:21:05.775Z,30.83
2023-02-12T05:23:36.260Z,31.63
2023-02-12T05:26:06.991Z,30.58
2023-02-12T05:28:34.770Z,30.52
2023-02-12T05:31:06.801Z,31.75
2023-02-12T05:33:34.584Z,31.48
2023-02-12T05:36:09.714Z,31.70
2023-02-12T05:38:37.433Z,30.13
2023-02-12T05:41:11.187Z,30.92
2023-02-12T05:43:39.036Z,30.27
2023-02-12T05:46:07.721Z,29.67
2023-02-12T05:48:38.383Z,30.67
2023-02-12T05:51:11.560Z,29.60
2023-02-12T05:53:40.313Z,30.48
2023-02-12T05:56:19.306Z,30.23
2023-02-12T05:58:58.653Z,29.33
2023-02-12T06:01:32.462Z,30.33
2023-02-12T06:04:01.173Z,30.73
2023-02-12T06:06:30.024Z,31.48
2023-02-12T06:08:58.947Z,30.58
2023-02-12T06:11:26.427Z,30.17
2023-02-12T06:13:53.706Z,30.33
2023-02-12T06:16:24.228Z,28.95
2023-02-12T06:18:52.480Z,28.00
2023-02-12T06:21:23.754Z,29.42
2023-02-12T06:23:54.185Z,29.63
2023-02-12T06:26:23.896Z,29.65
2023-02-12T06:28:51.911Z,28.02
2023-02-12T06:31:27.266Z,28.92
2023-02-12T06:33:56.943Z,27.85
2023-02-12T06:36:25.669Z,28.65
2023-02-12T06:38:53.387Z,27.88
2023-02-12T06:41:21.909Z,30.02
2023-02-12T06:43:50.025Z,29.80
2023-02-12T06:46:17.497Z,31.75
2023-02-12T06:48:45.944Z,31.48
2023-02-12T06:51:19.223Z,35.70
2023-02-12T06:53:46.829Z,36.40
2023-02-12T06:56:15.428Z,36.10
2023-02-12T06:58:45.469Z,33.33
2023-02-12T07:01:23.708Z,31.25
2023-02-12T07:04:11.767Z,31.52
2023-02-12T07:06:39.099Z,31.98
2023-02-12T07:09:07.427Z,31.85
2023-02-12T07:11:38.311Z,32.65
2023-02-12T07:14:07.571Z,31.20
2023-02-12T07:16:35.369Z,32.90
2023-02-12T07:19:02.860Z,29.95
2023-02-12T07:21:31.185Z,31.33
2023-02-12T07:23:59.466Z,31.17
2023-02-12T07:26:26.741Z,48.53
2023-02-12T07:28:55.236Z,35.80
2023-02-12T07:31:24.209Z,30.85
2023-02-12T07:33:58.790Z,35.13
2023-02-12T07:36:29.038Z,36.25
2023-02-12T07:38:57.832Z,35.17
2023-02-12T07:41:28.819Z,34.30
2023-02-12T07:44:01.084Z,36.00
2023-02-12T07:46:31.941Z,33.90
2023-02-12T07:49:01.951Z,31.33
2023-02-12T07:51:32.935Z,30.92
2023-02-12T07:54:01.470Z,29.00
2023-02-12T07:56:32.842Z,30.50
2023-02-12T07:59:08.684Z,32.58
2023-02-12T08:01:41.413Z,31.17
2023-02-12T08:04:11.324Z,36.35
2023-02-12T08:06:42.650Z,32.70
2023-02-12T08:09:13.928Z,31.25
2023-02-12T08:11:43.574Z,28.85
2023-02-12T08:14:15.148Z,33.60
2023-02-12T08:16:43.609Z,40.20
2023-02-12T08:19:19.042Z,39.75
2023-02-12T08:21:52.689Z,44.28
2023-02-12T08:24:20.307Z,36.78
2023-02-12T08:26:47.532Z,35.35
2023-02-12T08:29:18.160Z,70.13
2023-02-12T08:31:48.719Z,172.93
2023-02-12T08:34:23.424Z,164.73
2023-02-12T08:36:57.010Z,75.18
2023-02-12T08:39:27.156Z,38.38
2023-02-12T08:41:59.667Z,35.35
2023-02-12T08:44:35.788Z,35.40
2023-02-12T08:47:03.262Z,39.03
2023-02-12T08:49:30.964Z,26.70
2023-02-12T08:52:02.728Z,22.75
2023-02-12T08:54:33.017Z,27.90
2023-02-12T08:57:02.851Z,31.27
2023-02-12T08:59:30.960Z,30.98
2023-02-12T09:02:00.980Z,32.72
2023-02-12T09:04:29.754Z,25.35
2023-02-12T09:06:58.406Z,27.10
2023-02-12T09:09:31.524Z,28.00
2023-02-12T09:11:59.107Z,22.83
2023-02-12T09:14:26.520Z,19.27
2023-02-12T09:16:55.075Z,29.00
2023-02-12T09:19:28.521Z,21.52
2023-02-12T09:21:57.174Z,18.08
2023-02-12T09:24:28.133Z,18.77
2023-02-12T09:26:57.222Z,18.95
2023-02-12T09:29:26.625Z,21.77
2023-02-12T09:31:54.095Z,22.27
2023-02-12T09:34:21.469Z,23.63
2023-02-12T09:36:49.954Z,23.42
2023-02-12T09:39:18.624Z,23.52
2023-02-12T09:42:02.295Z,24.23
2023-02-12T09:45:04.612Z,24.42
2023-02-12T09:48:07.868Z,23.55
2023-02-12T09:50:55.819Z,23.48
2023-02-12T09:53:29.907Z,28.33
2023-02-12T09:55:57.919Z,28.17
2023-02-12T09:58:59.443Z,35.78
2023-02-12T10:01:30.333Z,35.63
2023-02-12T10:03:58.663Z,25.02
2023-02-12T10:06:36.354Z,23.45
2023-02-12T10:09:23.676Z,25.95
2023-02-12T10:12:09.921Z,23.38
2023-02-12T10:15:27.731Z,25.42
2023-02-12T10:18:36.485Z,24.10
2023-02-12T10:21:12.517Z,27.58
2023-02-12T10:24:01.761Z,28.55
2023-02-12T10:26:44.613Z,27.42
2023-02-12T10:29:23.750Z,19.77
2023-02-12T10:32:24.729Z,16.35
2023-02-12T10:34:54.222Z,15.70
2023-02-12T10:37:44.485Z,16.83
2023-02-12T10:40:24.730Z,15.73
2023-02-12T10:42:53.735Z,16.00
2023-02-12T10:45:38.267Z,20.20
2023-02-12T10:48:20.879Z,23.00
2023-02-12T10:51:10.529Z,20.15
2023-02-12T10:53:41.553Z,23.50
2023-02-12T10:56:20.091Z,22.35
2023-02-12T10:59:02.066Z,21.40
2023-02-12T11:01:39.980Z,22.17
2023-02-12T11:04:26.243Z,27.00
2023-02-12T11:06:59.955Z,25.77
2023-02-12T11:09:49.024Z,23.17
2023-02-12T11:12:30.145Z,23.17
2023-02-12T11:15:17.966Z,23.85
2023-02-12T11:17:56.768Z,23.48
2023-02-12T11:20:28.356Z,22.55
2023-02-12T11:23:02.228Z,21.60
2023-02-12T11:25:33.431Z,21.73
2023-02-12T11:28:19.550Z,23.98
2023-02-12T11:30:54.936Z,23.45
2023-02-12T11:33:30.815Z,21.15
2023-02-12T11:36:00.616Z,23.02
2023-02-12T11:38:31.895Z,22.80
2023-02-12T11:41:25.063Z,21.10
2023-02-12T11:43:53.498Z,20.48
2023-02-12T11:46:28.658Z,20.95
2023-02-12T11:48:58.346Z,19.98
2023-02-12T11:51:32.310Z,20.42
2023-02-12T11:54:03.052Z,21.15
2023-02-12T11:56:46.473Z,21.30
2023-02-12T11:59:30.256Z,20.85
2023-02-12T12:02:02.753Z,22.05
2023-02-12T12:04:33.670Z,20.75
2023-02-12T12:07:20.662Z,20.00
2023-02-12T12:10:00.826Z,18.55
2023-02-12T12:12:40.999Z,20.10
2023-02-12T12:15:48.434Z,20.95
2023-02-12T12:19:04.372Z,19.95
2023-02-12T12:21:35.031Z,20.27
2023-02-12T12:24:11.947Z,19.30
2023-02-12T12:26:42.781Z,24.75
2023-02-12T12:29:23.085Z,21.27
2023-02-12T12:31:58.967Z,21.10
2023-02-12T12:34:28.316Z,20.65
2023-02-12T12:36:56.215Z,21.67
2023-02-12T12:39:46.771Z,20.15
2023-02-12T12:42:32.368Z,20.95
2023-02-12T12:45:08.978Z,22.25
2023-02-12T12:47:52.662Z,21.48
2023-02-12T12:50:37.432Z,21.65
2023-02-12T12:53:13.770Z,25.70
2023-02-12T12:55:53.568Z,23.75
2023-02-12T12:58:38.926Z,24.83
2023-02-12T13:01:15.655Z,24.60
2023-02-12T13:04:19.954Z,25.65
2023-02-12T13:09:49.241Z,23.73
2023-02-12T13:12:29.034Z,40.03
2023-02-12T13:15:34.122Z,39.97
2023-02-12T13:18:39.726Z,34.55
2023-02-12T13:21:32.140Z,22.02
2023-02-12T13:24:18.213Z,32.47
2023-02-12T13:27:21.120Z,28.35
2023-02-12T13:30:04.745Z,25.50
2023-02-12T13:32:44.197Z,21.27
2023-02-12T13:35:24.631Z,22.27
2023-02-12T13:37:57.628Z,24.70
2023-02-12T13:40:34.105Z,24.23
2023-02-12T13:43:56.865Z,28.55
2023-02-12T13:46:41.684Z,22.83
2023-02-12T13:49:45.558Z,24.25
2023-02-12T13:52:27.054Z,25.73
2023-02-12T13:55:28.293Z,23.25
2023-02-12T13:58:33.490Z,22.00
2023-02-12T14:01:03.956Z,18.40
2023-02-12T14:03:36.731Z,17.13
2023-02-12T14:06:21.014Z,16.53
2023-02-12T14:09:09.600Z,17.15
2023-02-12T14:11:50.813Z,18.77
2023-02-12T14:14:38.390Z,17.60
2023-02-12T14:17:32.814Z,17.23
2023-02-12T14:20:07.896Z,16.20
2023-02-12T14:22:36.889Z,15.75
2023-02-12T14:25:32.449Z,17.05
2023-02-12T14:28:21.908Z,16.50
2023-02-12T14:31:34.205Z,17.02
2023-02-12T14:34:09.495Z,17.00
2023-02-12T14:36:46.236Z,18.23
2023-02-12T14:39:28.296Z,21.60
2023-02-12T14:42:11.975Z,25.70
2023-02-12T14:45:03.187Z,26.50
2023-02-12T14:47:31.238Z,25.95
2023-02-12T14:50:07.644Z,22.98
2023-02-12T14:52:41.810Z,21.60
2023-02-12T14:55:23.801Z,20.35
2023-02-12T14:57:56.559Z,19.40
2023-02-12T15:00:36.536Z,19.33
2023-02-12T15:03:13.952Z,19.13
2023-02-12T15:06:23.989Z,19.67
2023-02-12T15:09:12.729Z,19.20
2023-02-12T15:12:04.892Z,18.20
2023-02-12T15:14:41.625Z,20.77
2023-02-12T15:17:30.475Z,19.73
2023-02-12T15:20:07.727Z,20.88
2023-02-12T15:22:45.726Z,25.08
2023-02-12T15:25:31.009Z,36.25
2023-02-12T15:28:02.805Z,34.05
2023-02-12T15:30:36.560Z,34.67
2023-02-12T15:33:08.872Z,33.72
2023-02-12T15:35:46.026Z,34.63
2023-02-12T15:38:37.120Z,30.73
2023-02-12T15:41:06.946Z,25.90
2023-02-12T15:43:40.322Z,20.85
2023-02-12T15:46:17.673Z,20.23
2023-02-12T15:48:46.349Z,18.40
2023-02-12T15:51:35.744Z,20.27
2023-02-12T15:54:08.041Z,20.40
2023-02-12T15:56:43.492Z,21.25
2023-02-12T15:59:25.330Z,23.33
2023-02-12T16:02:04.202Z,22.05
2023-02-12T16:04:37.957Z,23.85
2023-02-12T16:07:05.733Z,21.35
2023-02-12T16:09:37.228Z,24.17
2023-02-12T16:12:14.854Z,24.02
2023-02-12T16:14:51.404Z,31.73
2023-02-12T16:17:33.968Z,31.83
2023-02-12T16:20:28.054Z,32.17
2023-02-12T16:25:35.517Z,29.20
2023-02-12T16:28:15.881Z,25.67
2023-02-12T16:30:54.155Z,22.40
2023-02-12T16:33:52.958Z,23.13
2023-02-12T16:36:32.553Z,18.52
2023-02-12T16:39:06.421Z,18.25
2023-02-12T16:41:57.676Z,17.85
2023-02-12T16:44:34.037Z,16.23
2023-02-12T16:47:02.442Z,16.38
2023-02-12T16:49:32.673Z,17.67
2023-02-12T16:52:29.201Z,25.38
2023-02-12T16:54:58.303Z,20.58
2023-02-12T16:57:28.833Z,17.35
2023-02-12T17:00:00.628Z,18.85
2023-02-12T17:02:28.735Z,18.40
2023-02-12T17:05:01.817Z,18.85
2023-02-12T17:07:31.376Z,19.23
2023-02-12T17:10:01.419Z,23.65
2023-02-12T17:12:30.577Z,20.13
2023-02-12T17:14:58.912Z,17.85
2023-02-12T17:17:29.219Z,18.23
2023-02-12T17:19:57.075Z,17.80
2023-02-12T17:22:29.499Z,20.75
2023-02-12T17:24:57.732Z,29.65
2023-02-12T17:27:28.213Z,117.20
2023-02-12T17:30:01.614Z,79.07
2023-02-12T17:32:29.846Z,40.22
2023-02-12T17:34:59.048Z,36.72
2023-02-12T17:37:26.896Z,39.40
2023-02-12T17:39:57.029Z,68.63
2023-02-12T17:42:25.006Z,38.08
2023-02-12T17:44:53.905Z,38.53
2023-02-12T17:47:23.216Z,30.20
2023-02-12T17:49:52.122Z,24.90
2023-02-12T17:52:20.598Z,21.20
2023-02-12T17:54:51.859Z,30.92
2023-02-12T17:57:20.564Z,29.38
2023-02-12T17:59:48.793Z,33.45
2023-02-12T18:02:17.939Z,32.85
2023-02-12T18:04:48.044Z,22.88
2023-02-12T18:07:16.675Z,25.52
2023-02-12T18:09:46.689Z,24.52
2023-02-12T18:12:15.621Z,26.38
2023-02-12T18:14:50.733Z,27.23
2023-02-12T18:17:19.643Z,33.95
2023-02-12T18:19:49.877Z,37.45
2023-02-12T18:22:21.931Z,31.83
2023-02-12T18:24:51.844Z,24.00
2023-02-12T18:27:28.485Z,27.83
2023-02-12T18:29:58.955Z,23.48
2023-02-12T18:32:29.138Z,23.85
2023-02-12T18:34:58.488Z,21.83
2023-02-12T18:37:29.051Z,24.88
2023-02-12T18:40:01.228Z,28.33
2023-02-12T18:42:29.584Z,28.10
2023-02-12T18:45:06.907Z,31.02
2023-02-12T18:47:36.275Z,32.00
2023-02-12T18:50:06.469Z,32.75
2023-02-12T18:52:38.063Z,33.42
2023-02-12T18:55:09.126Z,40.97
2023-02-12T18:57:39.284Z,40.70
2023-02-12T19:00:09.877Z,51.60
2023-02-12T19:02:44.709Z,56.58
2023-02-12T19:05:17.036Z,57.00
2023-02-12T19:07:45.520Z,48.35
2023-02-12T19:10:14.869Z,58.58
2023-02-12T19:12:43.664Z,66.88
2023-02-12T19:15:12.070Z,55.95
2023-02-12T19:17:40.671Z,52.75
2023-02-12T19:20:09.537Z,45.67
2023-02-12T19:22:39.341Z,44.97
2023-02-12T19:25:09.365Z,51.78
2023-02-12T19:27:38.079Z,48.90
2023-02-12T19:30:09.771Z,45.60
2023-02-12T19:32:39.027Z,39.25
2023-02-12T19:35:09.272Z,46.47
2023-02-12T19:37:37.804Z,60.17
2023-02-12T19:40:11.254Z,46.67
2023-02-12T19:45:09.455Z,54.30
2023-02-12T19:47:38.731Z,55.88
2023-02-12T19:50:12.422Z,50.20
2023-02-12T19:52:43.983Z,49.95
2023-02-12T19:55:13.170Z,37.40
2023-02-12T19:57:49.944Z,44.40
2023-02-12T20:00:20.629Z,39.75
2023-02-12T20:02:49.716Z,34.45
2023-02-12T20:05:20.532Z,37.00
2023-02-12T20:07:49.958Z,35.47
2023-02-12T20:10:19.663Z,33.90
2023-02-12T20:12:49.066Z,33.70
2023-02-12T20:15:17.775Z,28.48
2023-02-12T20:17:46.988Z,26.70
2023-02-12T20:20:18.627Z,31.50
2023-02-12T20:22:48.125Z,29.48
2023-02-12T20:25:18.960Z,31.30
2023-02-12T20:27:49.538Z,30.05
2023-02-12T20:30:18.864Z,30.50
2023-02-12T20:32:48.838Z,31.88
2023-02-12T20:35:17.809Z,35.03
2023-02-12T20:37:47.630Z,36.65
2023-02-12T20:40:16.346Z,36.90
2023-02-12T20:42:46.654Z,43.70
2023-02-12T20:45:14.751Z,36.03
2023-02-12T20:47:43.979Z,33.50
2023-02-12T20:50:12.439Z,33.20
2023-02-12T20:52:40.811Z,37.38
2023-02-12T20:55:14.900Z,37.53
2023-02-12T20:57:46.406Z,36.03
2023-02-12T21:00:17.849Z,37.22
2023-02-12T21:02:45.988Z,37.45
2023-02-12T21:05:14.044Z,37.20
2023-02-12T21:07:45.947Z,37.45
2023-02-12T21:10:15.350Z,39.65
2023-02-12T21:12:46.496Z,39.45
2023-02-12T21:15:14.776Z,48.97
2023-02-12T21:17:42.602Z,44.70
2023-02-12T21:20:11.085Z,41.88
2023-02-12T21:22:39.712Z,37.47
2023-02-12T21:25:10.471Z,35.97
2023-02-12T21:27:41.137Z,36.45
2023-02-12T21:30:10.277Z,37.17
2023-02-12T21:32:40.107Z,40.25
2023-02-12T21:35:08.888Z,38.10
2023-02-12T21:37:40.066Z,39.75
2023-02-12T21:40:10.472Z,39.53
2023-02-12T21:42:39.785Z,40.03
2023-02-12T21:45:08.978Z,41.05
2023-02-12T21:47:37.350Z,39.85
2023-02-12T21:50:06.393Z,40.40
2023-02-12T21:52:34.869Z,43.47
2023-02-12T21:55:09.467Z,41.83
2023-02-12T21:57:37.561Z,45.00
2023-02-12T22:00:05.466Z,45.10
2023-02-12T22:02:35.224Z,45.90
2023-02-12T22:05:02.748Z,47.03
2023-02-12T22:07:31.097Z,52.17
2023-02-12T22:09:58.720Z,53.38
2023-02-12T22:12:26.179Z,53.33
2023-02-12T22:14:53.583Z,53.63
2023-02-12T22:17:23.130Z,55.97
2023-02-12T22:19:50.142Z,57.38
2023-02-12T22:22:17.561Z,62.55
2023-02-12T22:24:44.929Z,64.18
2023-02-12T22:27:12.344Z,59.83
2023-02-12T22:29:39.793Z,59.70
2023-02-12T22:32:07.289Z,56.70
2023-02-12T22:34:34.730Z,57.90
2023-02-12T22:37:02.201Z,55.13
2023-02-12T22:39:32.582Z,58.70
2023-02-12T22:42:01.733Z,59.90
2023-02-12T22:44:29.265Z,59.88
2023-02-12T22:46:56.631Z,60.40
2023-02-12T22:49:24.103Z,65.38
2023-02-12T22:51:51.490Z,66.03
2023-02-12T22:54:20.363Z,66.43
2023-02-12T22:56:51.334Z,64.18
2023-02-12T22:59:19.627Z,63.28
2023-02-12T23:01:46.995Z,61.33
2023-02-12T23:04:16.812Z,59.70
2023-02-12T23:06:44.645Z,62.05
2023-02-12T23:09:15.290Z,61.47
2023-02-12T23:11:42.641Z,63.00
2023-02-12T23:14:09.919Z,59.25
2023-02-12T23:16:37.649Z,58.08
2023-02-12T23:19:04.843Z,59.35
2023-02-12T23:21:34.416Z,57.88
2023-02-12T23:24:02.781Z,55.17
2023-02-12T23:26:32.431Z,57.28
2023-02-12T23:29:00.733Z,57.95
2023-02-12T23:31:28.917Z,60.38
2023-02-12T23:33:56.252Z,65.55
2023-02-12T23:36:23.741Z,61.10
2023-02-12T23:38:51.075Z,54.42
2023-02-12T23:41:18.852Z,55.60
2023-02-12T23:43:46.041Z,54.75
2023-02-12T23:46:14.600Z,51.63
2023-02-12T23:48:42.141Z,54.17
2023-02-12T23:51:09.521Z,55.22
2023-02-12T23:53:37.137Z,52.03
2023-02-12T23:56:07.679Z,53.67
2023-02-12T23:58:34.943Z,51.47
